Flight Track Log - Related Links

Times and Time Zones

All times are in EDT time to prevent confusion due to time zone crossing. See the SWA385 flight status page for this flight to view local times or setup timezone preferences in your user account.

Time Position Orientation Groundspeed Altitude Reporting Facility
EDT Latitude Longitude Course Direction KTS MPH feet Rate Location/Type
Thu 12:35:50 AM 38.6500 -121.5667 128° Southeast 191 220 3,800  Level Northern Cal TRACON
Thu 12:37:24 AM 38.6050 -121.4919 128° Southeast 198 228 10,100 3,368 Climbing Oakland Center
Thu 12:38:25 AM 38.5561 -121.4183 130° Southeast 285 328 12,500 3,197 Climbing Oakland Center
Thu 12:39:26 AM 38.4958 -121.3281 130° Southeast 333 383 16,600 3,787 Climbing Oakland Center
Thu 12:40:27 AM 38.4425 -121.2144 121° Southeast 384 442 20,200 3,689 Climbing Oakland Center
Thu 12:41:28 AM 38.3911 -121.0839 117° Southeast 393 452 24,100 3,393 Climbing Oakland Center
Thu 12:42:29 AM 38.3408 -120.9561 117° Southeast 403 464 27,100 2,410 Climbing Oakland Center
Thu 12:43:30 AM 38.2881 -120.8264 117° Southeast 411 473 29,000 1,623 Climbing Oakland Center
Thu 12:44:31 AM 38.2169 -120.6700 120° Southeast 425 489 30,400 1,869 Climbing Oakland Center
Thu 12:45:32 AM 38.1261 -120.5789 142° Southeast 415 478 32,800 2,459 Climbing Oakland Center
Thu 12:46:33 AM 38.0350 -120.4897 142° Southeast 413 475 35,400 2,213 Climbing Oakland Center
Thu 12:47:34 AM 37.9442 -120.4033 143° Southeast 410 472 37,300 1,820 Climbing Oakland Center
Thu 12:48:35 AM 37.8550 -120.3119 141° Southeast 412 474 39,100 1,721 Climbing Oakland Center
Thu 12:49:36 AM 37.7633 -120.2239 143° Southeast 413 475 40,800 984 Climbing Oakland Center
Thu 12:50:37 AM 37.6708 -120.1344 143° Southeast 417 480 41,100 148 Climbing Oakland Center
Thu 12:51:38 AM 37.5786 -120.0461 143° Southeast 416 479 41,100  Level Oakland Center
Thu 12:52:39 AM 37.4878 -119.9581 142° Southeast 412 474 41,100  Level Oakland Center
Thu 12:53:40 AM 37.3969 -119.8714 143° Southeast 410 472 41,100 -49 Level Oakland Center
Thu 12:54:41 AM 37.2967 -119.7756 143° Southeast 408 470 41,000 -49 Descending Oakland Center
Thu 12:55:42 AM 37.2061 -119.6903 143° Southeast 407 468 41,000 49 Level Oakland Center
Thu 12:56:43 AM 37.1131 -119.6067 144° Southeast 410 472 41,100  Climbing Oakland Center
Thu 12:57:44 AM 37.0072 -119.5969 176° South 386 444 41,000 -49 Descending Oakland Center
Thu 12:58:45 AM 36.9003 -119.5986 181° South 383 441 41,000  Level Oakland Center
Thu 12:59:46 AM 36.7928 -119.5992 180° South 387 445 41,000  Level Oakland Center
Thu 01:00:47 AM 36.6856 -119.6008 181° South 385 443 41,000  Level Oakland Center
Thu 01:01:48 AM 36.5767 -119.6039 181° South 389 448 41,000  Level Oakland Center
Thu 01:02:49 AM 36.4678 -119.6050 180° South 391 450 41,000  Level Oakland Center
Thu 01:03:50 AM 36.3589 -119.6064 181° South 391 450 41,000  Level Oakland Center
Thu 01:04:51 AM 36.2267 -119.6094 181° South 394 453 41,000  Level Oakland Center
Thu 01:05:52 AM 36.1169 -119.6108 181° South 394 453 41,000  Level Oakland Center
Thu 01:06:53 AM 36.0072 -119.6128 181° South 394 453 41,000  Level Oakland Center
Thu 01:07:54 AM 35.8981 -119.6147 181° South 393 452 41,000  Level Oakland Center
Thu 01:08:55 AM 35.7881 -119.6214 183° South 394 453 41,000  Level Oakland Center
Thu 01:09:56 AM 35.6769 -119.6250 182° South 396 456 41,000  Level Oakland Center
Thu 01:11:00 AM 35.5689 -119.6150 176° South 397 457 41,000  Level Los Angeles Center
Thu 01:12:01 AM 35.4647 -119.5622 158° South 403 464 41,000  Level Los Angeles Center
Thu 01:13:03 AM 35.3611 -119.5122 159° South 400 460 41,000  Level Los Angeles Center
Thu 01:14:04 AM 35.2569 -119.4617 158° South 400 460 41,000  Level Los Angeles Center
Thu 01:15:06 AM 35.1311 -119.4000 158° South 404 465 41,000  Level Los Angeles Center
Thu 01:16:09 AM 35.0325 -119.3306 150° Southeast 409 471 41,000  Level Los Angeles Center
Thu 01:17:09 AM 34.9319 -119.2642 152° Southeast 409 471 41,000 -99 Level Los Angeles Center
Thu 01:18:10 AM 34.8314 -119.1967 151° Southeast 412 474 40,800 -1,024 Descending Los Angeles Center
Thu 01:19:12 AM 34.7339 -119.1342 152° Southeast 401 461 38,900 -2,293 Descending Los Angeles Center
Thu 01:20:13 AM 34.6336 -119.0661 151° Southeast 394 453 36,100 -3,171 Descending Los Angeles Center
Thu 01:21:15 AM 34.5336 -118.9997 151° Southeast 405 466 32,400 -3,463 Descending Los Angeles Center
Thu 01:22:16 AM 34.4308 -118.9314 151° Southeast 417 480 29,000 -3,148 Descending Los Angeles Center
Thu 01:23:17 AM 34.3272 -118.8722 155° Southeast 413 475 26,000 -2,878 Descending Los Angeles Center
Thu 01:24:19 AM 34.2203 -118.8317 163° South 404 465 23,100 -2,829 Descending Los Angeles Center
Thu 01:25:20 AM 34.1158 -118.7933 163° South 390 449 20,200 -3,122 Descending Los Angeles Center
Thu 01:26:22 AM 33.9931 -118.7489 163° South 386 444 16,700 -2,976 Descending Los Angeles Center
Thu 01:27:23 AM 33.8950 -118.7125 163° South 373 429 14,100 -1,328 Descending Los Angeles Center
Thu 01:28:24 AM 33.8014 -118.6789 163° South 356 410 14,000 -390 Descending Los Angeles Center
Thu 01:29:26 AM 33.7092 -118.6453 163° South 350 403 13,300 -1,333 Descending Los Angeles Center
Thu 01:30:39 AM 33.6092 -118.6092 163° South 316 364 11,000 -1,662 Descending Los Angeles Center
Thu 01:31:54 AM 33.5564 -118.5267 127° Southeast 300 345 9,200 -1,867 Descending Los Angeles Center
Thu 01:32:54 AM 33.5556 -118.4106 90° East 294 338 6,800 -1,983 Descending Los Angeles Center
Thu 01:33:55 AM 33.5608 -118.3128 86° East 297 342 5,200 -878 Descending Los Angeles Center
Thu 01:34:57 AM 33.5806 -118.2203 76° East 292 336 5,000 -98 Descending Los Angeles Center
Thu 01:35:58 AM 33.5967 -118.1358 77° East 276 318 5,000  Level Los Angeles Center
Thu 01:36:59 AM 33.6108 -118.0606 77° East 246 283 5,000 -508 Level Los Angeles Center
Thu 01:38:08 AM 33.6333 -117.9667 74° East 227 261 3,900 -1,067 Descending Southern California TRACON
Thu 01:39:14 AM 33.6833 -117.9167 40° Northeast 185 213 2,600 -850 Descending Southern California TRACON
Thu 01:40:08 AM 33.7167 -117.9000 23° Northeast 163 188 2,200 -842 Descending Southern California TRACON
Thu 01:41:08 AM 33.7167 -117.8500 90° East 120 138 1,000 -1,000 Descending Southern California TRACON
Thu 01:42:08 AM 33.6833 -117.8667 203° Southwest 121 139 200 -800 Descending Southern California TRACON

Login

Don't have an account? Register now (free) for customized features, flight alerts, and more!